sensor_id;sensor_type;location;lat;lon;timestamp;P1;durP1;ratioP1;P2;durP2;ratioP2
28774;SDS011;15926;51.348;6.596;2024-02-14T00:01:42;2.45;;;1.40;;
28774;SDS011;15926;51.348;6.596;2024-02-14T00:04:12;2.03;;;1.20;;
28774;SDS011;15926;51.348;6.596;2024-02-14T00:06:39;1.40;;;1.10;;
28774;SDS011;15926;51.348;6.596;2024-02-14T00:09:05;3.38;;;1.33;;
28774;SDS011;15926;51.348;6.596;2024-02-14T00:11:31;3.35;;;1.23;;
28774;SDS011;15926;51.348;6.596;2024-02-14T00:13:57;4.57;;;1.20;;
28774;SDS011;15926;51.348;6.596;2024-02-14T00:16:25;1.83;;;1.10;;
28774;SDS011;15926;51.348;6.596;2024-02-14T00:18:51;3.05;;;1.40;;
28774;SDS011;15926;51.348;6.596;2024-02-14T00:21:17;4.95;;;1.25;;
28774;SDS011;15926;51.348;6.596;2024-02-14T00:23:43;4.57;;;1.15;;
28774;SDS011;15926;51.348;6.596;2024-02-14T00:26:09;5.93;;;1.15;;
28774;SDS011;15926;51.348;6.596;2024-02-14T00:28:35;1.77;;;1.08;;
28774;SDS011;15926;51.348;6.596;2024-02-14T00:31:01;3.50;;;1.50;;
28774;SDS011;15926;51.348;6.596;2024-02-14T00:33:27;2.35;;;0.93;;
28774;SDS011;15926;51.348;6.596;2024-02-14T00:35:53;3.05;;;1.35;;
28774;SDS011;15926;51.348;6.596;2024-02-14T00:38:19;1.05;;;0.80;;
28774;SDS011;15926;51.348;6.596;2024-02-14T00:40:45;0.93;;;0.93;;
28774;SDS011;15926;51.348;6.596;2024-02-14T00:43:11;3.85;;;1.40;;
28774;SDS011;15926;51.348;6.596;2024-02-14T00:45:37;1.55;;;1.17;;
28774;SDS011;15926;51.348;6.596;2024-02-14T00:48:03;1.27;;;1.15;;
28774;SDS011;15926;51.348;6.596;2024-02-14T00:50:29;3.28;;;0.90;;
28774;SDS011;15926;51.348;6.596;2024-02-14T00:52:56;2.67;;;1.60;;
28774;SDS011;15926;51.348;6.596;2024-02-14T00:55:22;1.45;;;0.85;;
28774;SDS011;15926;51.348;6.596;2024-02-14T00:57:48;1.20;;;0.93;;
28774;SDS011;15926;51.348;6.596;2024-02-14T01:00:14;2.08;;;1.20;;
28774;SDS011;15926;51.348;6.596;2024-02-14T01:02:42;1.15;;;1.00;;
28774;SDS011;15926;51.348;6.596;2024-02-14T01:05:08;2.28;;;0.95;;
28774;SDS011;15926;51.348;6.596;2024-02-14T01:07:34;3.28;;;1.10;;
28774;SDS011;15926;51.348;6.596;2024-02-14T01:10:00;1.83;;;0.90;;
28774;SDS011;15926;51.348;6.596;2024-02-14T01:12:26;3.25;;;1.02;;
28774;SDS011;15926;51.348;6.596;2024-02-14T01:14:54;2.38;;;1.17;;
28774;SDS011;15926;51.348;6.596;2024-02-14T01:17:20;0.98;;;0.77;;
28774;SDS011;15926;51.348;6.596;2024-02-14T01:19:47;1.30;;;0.95;;
28774;SDS011;15926;51.348;6.596;2024-02-14T01:22:13;1.40;;;0.85;;
28774;SDS011;15926;51.348;6.596;2024-02-14T01:24:42;4.70;;;1.20;;
28774;SDS011;15926;51.348;6.596;2024-02-14T01:27:08;2.08;;;1.08;;
28774;SDS011;15926;51.348;6.596;2024-02-14T01:29:34;3.47;;;1.35;;
28774;SDS011;15926;51.348;6.596;2024-02-14T01:32:02;1.92;;;0.77;;
28774;SDS011;15926;51.348;6.596;2024-02-14T01:34:29;1.98;;;0.85;;
28774;SDS011;15926;51.348;6.596;2024-02-14T01:36:56;3.85;;;1.00;;
28774;SDS011;15926;51.348;6.596;2024-02-14T01:39:22;1.30;;;1.20;;
28774;SDS011;15926;51.348;6.596;2024-02-14T01:41:48;1.25;;;0.90;;
28774;SDS011;15926;51.348;6.596;2024-02-14T01:44:22;3.28;;;1.02;;
28774;SDS011;15926;51.348;6.596;2024-02-14T01:46:48;2.97;;;1.13;;
28774;SDS011;15926;51.348;6.596;2024-02-14T01:49:14;1.38;;;1.25;;
28774;SDS011;15926;51.348;6.596;2024-02-14T01:51:42;3.75;;;1.30;;
28774;SDS011;15926;51.348;6.596;2024-02-14T01:54:10;2.85;;;1.33;;
28774;SDS011;15926;51.348;6.596;2024-02-14T01:56:37;2.10;;;0.90;;
28774;SDS011;15926;51.348;6.596;2024-02-14T01:59:04;1.92;;;1.20;;
28774;SDS011;15926;51.348;6.596;2024-02-14T02:01:31;2.53;;;0.88;;
28774;SDS011;15926;51.348;6.596;2024-02-14T02:03:57;3.83;;;1.40;;
28774;SDS011;15926;51.348;6.596;2024-02-14T02:06:24;1.00;;;1.00;;
28774;SDS011;15926;51.348;6.596;2024-02-14T02:08:51;2.20;;;1.20;;
28774;SDS011;15926;51.348;6.596;2024-02-14T02:11:18;1.50;;;0.90;;
28774;SDS011;15926;51.348;6.596;2024-02-14T02:13:44;1.17;;;1.08;;
28774;SDS011;15926;51.348;6.596;2024-02-14T02:16:10;2.85;;;1.25;;
28774;SDS011;15926;51.348;6.596;2024-02-14T02:18:37;2.80;;;1.20;;
28774;SDS011;15926;51.348;6.596;2024-02-14T02:21:03;2.85;;;1.00;;
28774;SDS011;15926;51.348;6.596;2024-02-14T02:23:33;2.03;;;1.00;;
28774;SDS011;15926;51.348;6.596;2024-02-14T02:26:00;1.75;;;1.10;;
28774;SDS011;15926;51.348;6.596;2024-02-14T02:28:26;1.48;;;0.90;;
28774;SDS011;15926;51.348;6.596;2024-02-14T02:30:52;1.88;;;1.10;;
28774;SDS011;15926;51.348;6.596;2024-02-14T02:33:21;1.63;;;1.20;;
28774;SDS011;15926;51.348;6.596;2024-02-14T02:35:52;1.23;;;1.13;;
28774;SDS011;15926;51.348;6.596;2024-02-14T02:38:19;1.63;;;1.00;;
28774;SDS011;15926;51.348;6.596;2024-02-14T02:40:47;1.10;;;1.00;;
28774;SDS011;15926;51.348;6.596;2024-02-14T02:43:13;1.48;;;1.38;;
28774;SDS011;15926;51.348;6.596;2024-02-14T02:45:41;1.70;;;1.17;;
28774;SDS011;15926;51.348;6.596;2024-02-14T02:48:08;1.45;;;0.82;;
28774;SDS011;15926;51.348;6.596;2024-02-14T02:50:34;2.25;;;1.15;;
28774;SDS011;15926;51.348;6.596;2024-02-14T02:53:00;1.45;;;1.10;;
28774;SDS011;15926;51.348;6.596;2024-02-14T02:55:26;1.33;;;1.00;;
28774;SDS011;15926;51.348;6.596;2024-02-14T02:57:53;1.38;;;1.20;;
28774;SDS011;15926;51.348;6.596;2024-02-14T03:03:44;1.50;;;1.40;;
28774;SDS011;15926;51.348;6.596;2024-02-14T03:06:16;3.53;;;1.42;;
28774;SDS011;15926;51.348;6.596;2024-02-14T03:08:43;1.23;;;1.13;;
28774;SDS011;15926;51.348;6.596;2024-02-14T03:11:18;3.70;;;1.10;;
28774;SDS011;15926;51.348;6.596;2024-02-14T03:13:45;2.92;;;1.52;;
28774;SDS011;15926;51.348;6.596;2024-02-14T03:16:14;3.03;;;1.42;;
28774;SDS011;15926;51.348;6.596;2024-02-14T03:18:43;2.45;;;1.38;;
28774;SDS011;15926;51.348;6.596;2024-02-14T03:21:09;4.25;;;1.50;;
28774;SDS011;15926;51.348;6.596;2024-02-14T03:23:38;1.60;;;1.48;;
28774;SDS011;15926;51.348;6.596;2024-02-14T03:26:05;1.90;;;1.35;;
28774;SDS011;15926;51.348;6.596;2024-02-14T03:28:33;2.60;;;1.90;;
28774;SDS011;15926;51.348;6.596;2024-02-14T03:30:59;2.70;;;1.65;;
28774;SDS011;15926;51.348;6.596;2024-02-14T03:33:28;2.17;;;1.85;;
28774;SDS011;15926;51.348;6.596;2024-02-14T03:35:54;1.98;;;1.55;;
28774;SDS011;15926;51.348;6.596;2024-02-14T03:38:27;2.90;;;2.08;;
28774;SDS011;15926;51.348;6.596;2024-02-14T03:40:53;2.80;;;1.77;;
28774;SDS011;15926;51.348;6.596;2024-02-14T03:43:19;2.20;;;2.00;;
28774;SDS011;15926;51.348;6.596;2024-02-14T03:45:58;2.95;;;2.20;;
28774;SDS011;15926;51.348;6.596;2024-02-14T03:48:24;2.47;;;1.77;;
28774;SDS011;15926;51.348;6.596;2024-02-14T03:50:50;3.17;;;1.60;;
28774;SDS011;15926;51.348;6.596;2024-02-14T03:53:16;3.97;;;1.92;;
28774;SDS011;15926;51.348;6.596;2024-02-14T03:55:42;2.40;;;2.00;;
28774;SDS011;15926;51.348;6.596;2024-02-14T03:58:08;2.22;;;2.03;;
28774;SDS011;15926;51.348;6.596;2024-02-14T04:00:34;7.55;;;1.80;;
28774;SDS011;15926;51.348;6.596;2024-02-14T04:05:48;3.03;;;1.90;;
28774;SDS011;15926;51.348;6.596;2024-02-14T04:08:14;4.80;;;2.25;;
28774;SDS011;15926;51.348;6.596;2024-02-14T04:10:40;2.00;;;1.77;;
28774;SDS011;15926;51.348;6.596;2024-02-14T04:13:08;3.72;;;1.70;;
28774;SDS011;15926;51.348;6.596;2024-02-14T04:15:35;4.18;;;1.95;;
28774;SDS011;15926;51.348;6.596;2024-02-14T04:18:08;3.50;;;1.80;;
28774;SDS011;15926;51.348;6.596;2024-02-14T04:20:35;3.38;;;2.03;;
28774;SDS011;15926;51.348;6.596;2024-02-14T04:23:01;3.78;;;2.22;;
28774;SDS011;15926;51.348;6.596;2024-02-14T04:25:27;2.40;;;2.00;;
28774;SDS011;15926;51.348;6.596;2024-02-14T04:27:53;5.07;;;2.47;;
28774;SDS011;15926;51.348;6.596;2024-02-14T04:32:48;3.20;;;1.90;;
28774;SDS011;15926;51.348;6.596;2024-02-14T04:35:14;2.83;;;2.33;;
28774;SDS011;15926;51.348;6.596;2024-02-14T04:37:47;1.95;;;1.77;;
28774;SDS011;15926;51.348;6.596;2024-02-14T04:40:14;4.45;;;1.88;;
28774;SDS011;15926;51.348;6.596;2024-02-14T04:42:41;2.63;;;1.80;;
28774;SDS011;15926;51.348;6.596;2024-02-14T04:45:07;2.03;;;1.88;;
28774;SDS011;15926;51.348;6.596;2024-02-14T04:47:33;2.45;;;1.42;;
28774;SDS011;15926;51.348;6.596;2024-02-14T04:50:07;2.83;;;1.92;;
28774;SDS011;15926;51.348;6.596;2024-02-14T04:52:33;3.65;;;2.00;;
28774;SDS011;15926;51.348;6.596;2024-02-14T04:54:59;2.22;;;2.05;;
28774;SDS011;15926;51.348;6.596;2024-02-14T04:57:49;2.65;;;1.90;;
28774;SDS011;15926;51.348;6.596;2024-02-14T05:00:15;4.35;;;1.80;;
28774;SDS011;15926;51.348;6.596;2024-02-14T05:02:41;1.92;;;1.70;;
28774;SDS011;15926;51.348;6.596;2024-02-14T05:05:07;3.97;;;2.30;;
28774;SDS011;15926;51.348;6.596;2024-02-14T05:07:33;2.85;;;1.95;;
28774;SDS011;15926;51.348;6.596;2024-02-14T05:09:59;2.85;;;1.90;;
28774;SDS011;15926;51.348;6.596;2024-02-14T05:12:25;3.63;;;2.28;;
28774;SDS011;15926;51.348;6.596;2024-02-14T05:14:52;3.58;;;2.60;;
28774;SDS011;15926;51.348;6.596;2024-02-14T05:17:18;3.60;;;2.38;;
28774;SDS011;15926;51.348;6.596;2024-02-14T05:19:45;3.35;;;2.17;;
28774;SDS011;15926;51.348;6.596;2024-02-14T05:22:11;3.28;;;2.15;;
28774;SDS011;15926;51.348;6.596;2024-02-14T05:24:37;3.28;;;1.90;;
28774;SDS011;15926;51.348;6.596;2024-02-14T05:27:03;4.30;;;2.10;;
28774;SDS011;15926;51.348;6.596;2024-02-14T05:29:30;3.00;;;2.20;;
28774;SDS011;15926;51.348;6.596;2024-02-14T05:31:56;2.88;;;2.00;;
28774;SDS011;15926;51.348;6.596;2024-02-14T05:34:22;3.15;;;2.53;;
28774;SDS011;15926;51.348;6.596;2024-02-14T05:36:49;5.65;;;2.28;;
28774;SDS011;15926;51.348;6.596;2024-02-14T05:39:15;5.07;;;2.60;;
28774;SDS011;15926;51.348;6.596;2024-02-14T05:41:42;4.25;;;2.60;;
28774;SDS011;15926;51.348;6.596;2024-02-14T05:44:08;3.90;;;2.92;;
28774;SDS011;15926;51.348;6.596;2024-02-14T05:46:35;3.53;;;2.95;;
28774;SDS011;15926;51.348;6.596;2024-02-14T05:49:03;3.88;;;3.58;;
28774;SDS011;15926;51.348;6.596;2024-02-14T05:51:29;3.53;;;3.20;;
28774;SDS011;15926;51.348;6.596;2024-02-14T05:53:56;3.50;;;3.30;;
28774;SDS011;15926;51.348;6.596;2024-02-14T05:56:23;4.78;;;3.70;;
28774;SDS011;15926;51.348;6.596;2024-02-14T05:58:49;5.93;;;2.90;;
28774;SDS011;15926;51.348;6.596;2024-02-14T06:01:15;3.70;;;3.40;;
28774;SDS011;15926;51.348;6.596;2024-02-14T06:03:41;3.22;;;2.92;;
28774;SDS011;15926;51.348;6.596;2024-02-14T06:06:08;5.07;;;3.08;;
28774;SDS011;15926;51.348;6.596;2024-02-14T06:08:34;3.72;;;3.15;;
28774;SDS011;15926;51.348;6.596;2024-02-14T06:11:00;4.40;;;3.42;;
28774;SDS011;15926;51.348;6.596;2024-02-14T06:13:26;4.25;;;3.30;;
28774;SDS011;15926;51.348;6.596;2024-02-14T06:15:52;3.75;;;3.42;;
28774;SDS011;15926;51.348;6.596;2024-02-14T06:18:18;3.25;;;2.95;;
28774;SDS011;15926;51.348;6.596;2024-02-14T06:20:44;4.05;;;3.50;;
28774;SDS011;15926;51.348;6.596;2024-02-14T06:23:12;5.30;;;3.60;;
28774;SDS011;15926;51.348;6.596;2024-02-14T06:25:38;3.08;;;2.88;;
28774;SDS011;15926;51.348;6.596;2024-02-14T06:28:04;4.38;;;3.42;;
28774;SDS011;15926;51.348;6.596;2024-02-14T06:30:30;3.58;;;3.25;;
28774;SDS011;15926;51.348;6.596;2024-02-14T06:32:56;5.28;;;3.65;;
28774;SDS011;15926;51.348;6.596;2024-02-14T06:35:25;3.92;;;2.88;;
28774;SDS011;15926;51.348;6.596;2024-02-14T06:37:51;4.53;;;3.30;;
28774;SDS011;15926;51.348;6.596;2024-02-14T06:40:17;3.63;;;3.33;;
28774;SDS011;15926;51.348;6.596;2024-02-14T06:42:43;4.05;;;3.50;;
28774;SDS011;15926;51.348;6.596;2024-02-14T06:45:09;4.30;;;3.90;;
28774;SDS011;15926;51.348;6.596;2024-02-14T06:47:35;4.32;;;3.67;;
28774;SDS011;15926;51.348;6.596;2024-02-14T06:50:01;4.40;;;4.00;;
28774;SDS011;15926;51.348;6.596;2024-02-14T06:52:27;5.55;;;3.85;;
28774;SDS011;15926;51.348;6.596;2024-02-14T06:54:53;5.57;;;4.10;;
28774;SDS011;15926;51.348;6.596;2024-02-14T06:57:19;4.43;;;4.05;;
28774;SDS011;15926;51.348;6.596;2024-02-14T06:59:45;5.30;;;4.43;;
28774;SDS011;15926;51.348;6.596;2024-02-14T07:02:12;4.70;;;4.22;;
28774;SDS011;15926;51.348;6.596;2024-02-14T07:04:38;6.35;;;4.43;;
28774;SDS011;15926;51.348;6.596;2024-02-14T07:07:04;6.68;;;4.18;;
28774;SDS011;15926;51.348;6.596;2024-02-14T07:09:30;5.03;;;4.25;;
28774;SDS011;15926;51.348;6.596;2024-02-14T07:11:57;7.80;;;4.35;;
28774;SDS011;15926;51.348;6.596;2024-02-14T07:14:23;5.28;;;4.32;;
28774;SDS011;15926;51.348;6.596;2024-02-14T07:16:49;4.38;;;3.92;;
28774;SDS011;15926;51.348;6.596;2024-02-14T07:19:16;4.45;;;3.38;;
28774;SDS011;15926;51.348;6.596;2024-02-14T07:21:42;4.10;;;3.70;;
28774;SDS011;15926;51.348;6.596;2024-02-14T07:24:08;3.83;;;3.47;;
28774;SDS011;15926;51.348;6.596;2024-02-14T07:26:35;5.07;;;3.90;;
28774;SDS011;15926;51.348;6.596;2024-02-14T07:29:01;4.03;;;3.63;;
28774;SDS011;15926;51.348;6.596;2024-02-14T07:31:28;5.30;;;3.75;;
28774;SDS011;15926;51.348;6.596;2024-02-14T07:33:56;4.40;;;3.25;;
28774;SDS011;15926;51.348;6.596;2024-02-14T07:36:22;3.83;;;3.42;;
28774;SDS011;15926;51.348;6.596;2024-02-14T07:38:48;4.72;;;3.85;;
28774;SDS011;15926;51.348;6.596;2024-02-14T07:41:15;5.25;;;3.45;;
28774;SDS011;15926;51.348;6.596;2024-02-14T07:43:41;6.68;;;3.65;;
28774;SDS011;15926;51.348;6.596;2024-02-14T07:46:07;3.40;;;3.10;;
28774;SDS011;15926;51.348;6.596;2024-02-14T07:48:33;4.45;;;3.72;;
28774;SDS011;15926;51.348;6.596;2024-02-14T07:50:59;6.15;;;3.33;;
28774;SDS011;15926;51.348;6.596;2024-02-14T07:53:26;10.13;;;3.72;;
28774;SDS011;15926;51.348;6.596;2024-02-14T07:55:52;6.95;;;3.40;;
28774;SDS011;15926;51.348;6.596;2024-02-14T07:58:19;4.75;;;3.03;;
28774;SDS011;15926;51.348;6.596;2024-02-14T08:00:45;5.10;;;3.50;;
28774;SDS011;15926;51.348;6.596;2024-02-14T08:03:11;4.13;;;2.72;;
28774;SDS011;15926;51.348;6.596;2024-02-14T08:05:38;4.22;;;3.08;;
28774;SDS011;15926;51.348;6.596;2024-02-14T08:08:06;4.45;;;2.55;;
28774;SDS011;15926;51.348;6.596;2024-02-14T08:10:32;6.70;;;2.67;;
28774;SDS011;15926;51.348;6.596;2024-02-14T08:12:58;5.32;;;2.58;;
28774;SDS011;15926;51.348;6.596;2024-02-14T08:15:24;5.88;;;2.80;;
28774;SDS011;15926;51.348;6.596;2024-02-14T08:17:50;3.80;;;3.20;;
28774;SDS011;15926;51.348;6.596;2024-02-14T08:20:20;4.88;;;2.63;;
28774;SDS011;15926;51.348;6.596;2024-02-14T08:22:46;4.32;;;2.60;;
28774;SDS011;15926;51.348;6.596;2024-02-14T08:25:12;4.93;;;2.83;;
28774;SDS011;15926;51.348;6.596;2024-02-14T08:27:38;3.08;;;2.70;;
28774;SDS011;15926;51.348;6.596;2024-02-14T08:30:04;3.95;;;2.55;;
28774;SDS011;15926;51.348;6.596;2024-02-14T08:32:31;5.57;;;2.17;;
28774;SDS011;15926;51.348;6.596;2024-02-14T08:34:57;3.60;;;2.63;;
28774;SDS011;15926;51.348;6.596;2024-02-14T08:37:23;8.18;;;2.10;;
28774;SDS011;15926;51.348;6.596;2024-02-14T08:39:50;2.58;;;2.28;;
28774;SDS011;15926;51.348;6.596;2024-02-14T08:42:16;4.75;;;2.58;;
28774;SDS011;15926;51.348;6.596;2024-02-14T08:44:42;2.70;;;2.08;;
28774;SDS011;15926;51.348;6.596;2024-02-14T08:47:08;4.65;;;2.08;;
28774;SDS011;15926;51.348;6.596;2024-02-14T08:49:34;2.30;;;2.00;;
28774;SDS011;15926;51.348;6.596;2024-02-14T08:52:00;2.08;;;1.80;;
28774;SDS011;15926;51.348;6.596;2024-02-14T08:54:26;2.70;;;1.67;;
28774;SDS011;15926;51.348;6.596;2024-02-14T08:56:53;7.97;;;2.38;;
28774;SDS011;15926;51.348;6.596;2024-02-14T08:59:21;3.30;;;2.03;;
28774;SDS011;15926;51.348;6.596;2024-02-14T09:01:47;4.43;;;2.28;;
28774;SDS011;15926;51.348;6.596;2024-02-14T09:04:13;3.58;;;2.00;;
28774;SDS011;15926;51.348;6.596;2024-02-14T09:06:39;5.72;;;2.03;;
28774;SDS011;15926;51.348;6.596;2024-02-14T09:09:06;4.07;;;2.42;;
28774;SDS011;15926;51.348;6.596;2024-02-14T09:14:01;2.75;;;1.70;;
28774;SDS011;15926;51.348;6.596;2024-02-14T09:16:34;4.65;;;2.53;;
28774;SDS011;15926;51.348;6.596;2024-02-14T09:19:02;3.05;;;1.80;;
28774;SDS011;15926;51.348;6.596;2024-02-14T09:21:30;2.75;;;1.80;;
28774;SDS011;15926;51.348;6.596;2024-02-14T09:23:58;1.90;;;1.77;;
28774;SDS011;15926;51.348;6.596;2024-02-14T09:26:25;2.80;;;2.15;;
28774;SDS011;15926;51.348;6.596;2024-02-14T09:28:51;2.20;;;1.80;;
28774;SDS011;15926;51.348;6.596;2024-02-14T09:31:20;3.00;;;2.22;;
28774;SDS011;15926;51.348;6.596;2024-02-14T09:33:50;3.65;;;1.88;;
28774;SDS011;15926;51.348;6.596;2024-02-14T09:36:21;3.50;;;2.50;;
28774;SDS011;15926;51.348;6.596;2024-02-14T09:38:49;2.70;;;1.55;;
28774;SDS011;15926;51.348;6.596;2024-02-14T09:41:22;2.85;;;1.90;;
28774;SDS011;15926;51.348;6.596;2024-02-14T09:43:51;4.78;;;1.70;;
28774;SDS011;15926;51.348;6.596;2024-02-14T09:46:18;1.83;;;1.30;;
28774;SDS011;15926;51.348;6.596;2024-02-14T09:48:44;5.43;;;1.60;;
28774;SDS011;15926;51.348;6.596;2024-02-14T09:51:11;5.53;;;1.80;;
28774;SDS011;15926;51.348;6.596;2024-02-14T09:53:38;6.70;;;1.58;;
28774;SDS011;15926;51.348;6.596;2024-02-14T09:56:05;3.85;;;1.40;;
28774;SDS011;15926;51.348;6.596;2024-02-14T09:58:34;1.63;;;1.30;;
28774;SDS011;15926;51.348;6.596;2024-02-14T10:01:01;2.65;;;1.70;;
28774;SDS011;15926;51.348;6.596;2024-02-14T10:03:28;2.22;;;1.40;;
28774;SDS011;15926;51.348;6.596;2024-02-14T10:05:54;3.58;;;1.42;;
28774;SDS011;15926;51.348;6.596;2024-02-14T10:08:21;3.05;;;1.27;;
28774;SDS011;15926;51.348;6.596;2024-02-14T10:10:48;3.38;;;1.83;;
28774;SDS011;15926;51.348;6.596;2024-02-14T10:13:18;4.13;;;1.60;;
28774;SDS011;15926;51.348;6.596;2024-02-14T10:15:45;2.63;;;1.40;;
28774;SDS011;15926;51.348;6.596;2024-02-14T10:18:11;1.73;;;1.48;;
28774;SDS011;15926;51.348;6.596;2024-02-14T10:20:37;4.03;;;1.38;;
28774;SDS011;15926;51.348;6.596;2024-02-14T10:23:08;4.53;;;1.45;;
28774;SDS011;15926;51.348;6.596;2024-02-14T10:25:37;3.95;;;1.77;;
28774;SDS011;15926;51.348;6.596;2024-02-14T10:28:07;4.00;;;1.30;;
28774;SDS011;15926;51.348;6.596;2024-02-14T10:30:33;3.42;;;1.63;;
28774;SDS011;15926;51.348;6.596;2024-02-14T10:32:59;1.60;;;1.20;;
28774;SDS011;15926;51.348;6.596;2024-02-14T10:35:26;3.38;;;2.00;;
28774;SDS011;15926;51.348;6.596;2024-02-14T10:37:54;1.92;;;1.30;;
28774;SDS011;15926;51.348;6.596;2024-02-14T10:40:25;4.32;;;1.50;;
28774;SDS011;15926;51.348;6.596;2024-02-14T10:42:52;4.03;;;1.70;;
28774;SDS011;15926;51.348;6.596;2024-02-14T10:45:19;4.25;;;1.10;;
28774;SDS011;15926;51.348;6.596;2024-02-14T10:47:45;2.35;;;1.50;;
28774;SDS011;15926;51.348;6.596;2024-02-14T10:50:14;3.00;;;1.40;;
28774;SDS011;15926;51.348;6.596;2024-02-14T10:52:41;3.03;;;1.60;;
28774;SDS011;15926;51.348;6.596;2024-02-14T10:55:07;4.55;;;1.75;;
28774;SDS011;15926;51.348;6.596;2024-02-14T10:57:34;2.17;;;1.50;;
28774;SDS011;15926;51.348;6.596;2024-02-14T11:00:06;1.33;;;1.20;;
28774;SDS011;15926;51.348;6.596;2024-02-14T11:02:34;2.70;;;1.20;;
28774;SDS011;15926;51.348;6.596;2024-02-14T11:05:01;5.78;;;1.30;;
28774;SDS011;15926;51.348;6.596;2024-02-14T11:07:28;2.80;;;1.23;;
28774;SDS011;15926;51.348;6.596;2024-02-14T11:10:01;1.88;;;1.10;;
28774;SDS011;15926;51.348;6.596;2024-02-14T11:12:32;6.03;;;1.38;;
28774;SDS011;15926;51.348;6.596;2024-02-14T11:14:59;1.20;;;1.10;;
28774;SDS011;15926;51.348;6.596;2024-02-14T11:17:26;2.92;;;1.00;;
28774;SDS011;15926;51.348;6.596;2024-02-14T11:19:52;2.05;;;1.10;;
28774;SDS011;15926;51.348;6.596;2024-02-14T11:22:19;2.80;;;0.82;;
28774;SDS011;15926;51.348;6.596;2024-02-14T11:24:48;1.58;;;0.93;;
28774;SDS011;15926;51.348;6.596;2024-02-14T11:27:17;2.00;;;1.13;;
28774;SDS011;15926;51.348;6.596;2024-02-14T11:29:52;2.17;;;1.10;;
28774;SDS011;15926;51.348;6.596;2024-02-14T11:32:19;1.42;;;0.70;;
28774;SDS011;15926;51.348;6.596;2024-02-14T11:34:54;1.95;;;0.90;;
28774;SDS011;15926;51.348;6.596;2024-02-14T11:37:30;1.55;;;1.02;;
28774;SDS011;15926;51.348;6.596;2024-02-14T11:40:00;1.10;;;1.00;;
28774;SDS011;15926;51.348;6.596;2024-02-14T11:42:26;4.78;;;0.90;;
28774;SDS011;15926;51.348;6.596;2024-02-14T11:44:52;3.20;;;1.00;;
28774;SDS011;15926;51.348;6.596;2024-02-14T11:47:20;1.53;;;0.90;;
28774;SDS011;15926;51.348;6.596;2024-02-14T11:49:46;2.33;;;1.15;;
28774;SDS011;15926;51.348;6.596;2024-02-14T11:52:12;1.00;;;0.90;;
28774;SDS011;15926;51.348;6.596;2024-02-14T11:54:39;1.80;;;0.70;;
28774;SDS011;15926;51.348;6.596;2024-02-14T11:57:05;2.53;;;0.93;;
28774;SDS011;15926;51.348;6.596;2024-02-14T11:59:34;1.45;;;0.93;;
28774;SDS011;15926;51.348;6.596;2024-02-14T12:02:00;2.88;;;0.98;;
28774;SDS011;15926;51.348;6.596;2024-02-14T12:04:27;3.10;;;1.13;;
28774;SDS011;15926;51.348;6.596;2024-02-14T12:06:54;2.80;;;0.98;;
28774;SDS011;15926;51.348;6.596;2024-02-14T12:09:20;3.15;;;1.13;;
28774;SDS011;15926;51.348;6.596;2024-02-14T12:11:46;4.35;;;1.30;;
28774;SDS011;15926;51.348;6.596;2024-02-14T12:14:12;2.28;;;0.90;;
28774;SDS011;15926;51.348;6.596;2024-02-14T12:16:39;1.90;;;0.98;;
28774;SDS011;15926;51.348;6.596;2024-02-14T12:19:06;1.13;;;1.02;;
28774;SDS011;15926;51.348;6.596;2024-02-14T12:21:38;1.02;;;0.90;;
28774;SDS011;15926;51.348;6.596;2024-02-14T12:24:07;2.53;;;0.85;;
28774;SDS011;15926;51.348;6.596;2024-02-14T12:26:35;1.02;;;0.90;;
28774;SDS011;15926;51.348;6.596;2024-02-14T12:29:02;1.63;;;1.10;;
28774;SDS011;15926;51.348;6.596;2024-02-14T12:31:32;1.90;;;0.95;;
28774;SDS011;15926;51.348;6.596;2024-02-14T12:33:59;1.73;;;1.10;;
28774;SDS011;15926;51.348;6.596;2024-02-14T12:36:27;1.90;;;1.00;;
28774;SDS011;15926;51.348;6.596;2024-02-14T12:38:53;0.80;;;0.80;;
28774;SDS011;15926;51.348;6.596;2024-02-14T12:41:20;1.35;;;0.90;;
28774;SDS011;15926;51.348;6.596;2024-02-14T12:43:48;1.20;;;0.73;;
28774;SDS011;15926;51.348;6.596;2024-02-14T12:46:14;1.40;;;0.70;;
28774;SDS011;15926;51.348;6.596;2024-02-14T12:48:40;1.15;;;0.82;;
28774;SDS011;15926;51.348;6.596;2024-02-14T12:51:06;1.80;;;0.75;;
28774;SDS011;15926;51.348;6.596;2024-02-14T12:53:34;1.73;;;0.90;;
28774;SDS011;15926;51.348;6.596;2024-02-14T12:56:00;0.68;;;0.60;;
28774;SDS011;15926;51.348;6.596;2024-02-14T12:58:26;1.02;;;0.93;;
28774;SDS011;15926;51.348;6.596;2024-02-14T13:00:52;0.80;;;0.80;;
28774;SDS011;15926;51.348;6.596;2024-02-14T13:03:19;0.70;;;0.65;;
28774;SDS011;15926;51.348;6.596;2024-02-14T13:05:45;0.82;;;0.65;;
28774;SDS011;15926;51.348;6.596;2024-02-14T13:08:12;1.10;;;0.90;;
28774;SDS011;15926;51.348;6.596;2024-02-14T13:10:38;0.98;;;0.80;;
28774;SDS011;15926;51.348;6.596;2024-02-14T13:13:04;0.90;;;0.60;;
28774;SDS011;15926;51.348;6.596;2024-02-14T13:15:30;1.15;;;0.70;;
28774;SDS011;15926;51.348;6.596;2024-02-14T13:17:56;1.75;;;0.80;;
28774;SDS011;15926;51.348;6.596;2024-02-14T13:20:24;0.98;;;0.80;;
28774;SDS011;15926;51.348;6.596;2024-02-14T13:22:50;1.00;;;0.50;;
28774;SDS011;15926;51.348;6.596;2024-02-14T13:25:17;0.60;;;0.60;;
28774;SDS011;15926;51.348;6.596;2024-02-14T13:27:43;0.70;;;0.70;;
28774;SDS011;15926;51.348;6.596;2024-02-14T13:30:09;1.45;;;0.55;;
28774;SDS011;15926;51.348;6.596;2024-02-14T13:32:36;2.15;;;0.70;;
28774;SDS011;15926;51.348;6.596;2024-02-14T13:35:11;0.50;;;0.50;;
28774;SDS011;15926;51.348;6.596;2024-02-14T13:37:38;0.60;;;0.60;;
28774;SDS011;15926;51.348;6.596;2024-02-14T13:40:05;1.67;;;0.50;;
28774;SDS011;15926;51.348;6.596;2024-02-14T13:42:35;0.65;;;0.50;;
28774;SDS011;15926;51.348;6.596;2024-02-14T13:45:02;1.67;;;0.70;;
28774;SDS011;15926;51.348;6.596;2024-02-14T13:47:28;0.77;;;0.77;;
28774;SDS011;15926;51.348;6.596;2024-02-14T13:49:54;0.80;;;0.80;;
28774;SDS011;15926;51.348;6.596;2024-02-14T13:52:20;0.68;;;0.68;;
28774;SDS011;15926;51.348;6.596;2024-02-14T13:54:46;1.20;;;0.70;;
28774;SDS011;15926;51.348;6.596;2024-02-14T13:57:12;0.82;;;0.70;;
28774;SDS011;15926;51.348;6.596;2024-02-14T13:59:38;0.70;;;0.70;;
28774;SDS011;15926;51.348;6.596;2024-02-14T14:02:04;0.90;;;0.70;;
28774;SDS011;15926;51.348;6.596;2024-02-14T14:04:30;1.08;;;0.98;;
28774;SDS011;15926;51.348;6.596;2024-02-14T14:06:56;0.80;;;0.80;;
28774;SDS011;15926;51.348;6.596;2024-02-14T14:09:23;0.70;;;0.70;;
28774;SDS011;15926;51.348;6.596;2024-02-14T14:11:50;0.80;;;0.80;;
28774;SDS011;15926;51.348;6.596;2024-02-14T14:14:17;0.68;;;0.63;;
28774;SDS011;15926;51.348;6.596;2024-02-14T14:16:44;1.60;;;0.77;;
28774;SDS011;15926;51.348;6.596;2024-02-14T14:19:10;0.82;;;0.80;;
28774;SDS011;15926;51.348;6.596;2024-02-14T14:21:36;0.82;;;0.82;;
28774;SDS011;15926;51.348;6.596;2024-02-14T14:24:03;1.10;;;0.80;;
28774;SDS011;15926;51.348;6.596;2024-02-14T14:26:29;1.70;;;0.90;;
28774;SDS011;15926;51.348;6.596;2024-02-14T14:28:55;0.60;;;0.60;;
28774;SDS011;15926;51.348;6.596;2024-02-14T14:31:21;0.65;;;0.65;;
28774;SDS011;15926;51.348;6.596;2024-02-14T14:33:47;1.02;;;0.80;;
28774;SDS011;15926;51.348;6.596;2024-02-14T14:36:13;1.42;;;0.70;;
28774;SDS011;15926;51.348;6.596;2024-02-14T14:38:40;1.38;;;0.60;;
28774;SDS011;15926;51.348;6.596;2024-02-14T14:41:06;0.98;;;0.80;;
28774;SDS011;15926;51.348;6.596;2024-02-14T14:43:32;0.43;;;0.43;;
28774;SDS011;15926;51.348;6.596;2024-02-14T14:45:58;0.75;;;0.43;;
28774;SDS011;15926;51.348;6.596;2024-02-14T14:48:25;1.15;;;0.60;;
28774;SDS011;15926;51.348;6.596;2024-02-14T14:50:52;0.80;;;0.50;;
28774;SDS011;15926;51.348;6.596;2024-02-14T14:53:18;1.10;;;0.68;;
28774;SDS011;15926;51.348;6.596;2024-02-14T14:58:17;0.70;;;0.63;;
28774;SDS011;15926;51.348;6.596;2024-02-14T15:00:43;0.70;;;0.60;;